Time;durP1;ratioP1;P1;durP2;ratioP2;P2;SDS_P1;SDS_P2;PMS_P1;PMS_P2;Temp;Humidity;BMP_temperature;BMP_pressure;BME280_temperature;BME280_humidity;BME280_pressure;Samples;Min_cycle;Max_cycle;Signal;HPM_P1;HPM_P2
2021/11/29 00:01:57;;;;;;;43.35;22.37;;;;;;;7.25;100.00;97594.92;1654053;85;21149;-75
2021/11/29 00:04:23;;;;;;;48.40;22.60;;;;;;;7.26;100.00;97594.58;1642406;85;20949;-75
2021/11/29 00:06:52;;;;;;;45.83;23.83;;;;;;;7.29;100.00;97587.65;1652311;85;21094;-75
2021/11/29 00:09:21;;;;;;;44.60;23.42;;;;;;;7.32;100.00;97584.80;1647922;85;21019;-75
2021/11/29 00:11:49;;;;;;;45.28;23.20;;;;;;;7.34;100.00;97579.80;1651972;84;20952;-75
2021/11/29 00:14:15;;;;;;;42.38;22.62;;;;;;;7.36;100.00;97581.05;1650534;86;21491;-73
2021/11/29 00:16:43;;;;;;;48.02;25.37;;;;;;;7.39;100.00;97575.48;1676595;84;21574;-73
2021/11/29 00:19:11;;;;;;;49.95;24.80;;;;;;;7.41;100.00;97563.65;1678483;84;21621;-73
2021/11/29 00:21:40;;;;;;;51.40;24.75;;;;;;;7.42;100.00;97557.05;1673330;85;21071;-73
2021/11/29 00:24:06;;;;;;;44.73;23.73;;;;;;;7.44;100.00;97550.11;1666643;85;21015;-75
2021/11/29 00:26:33;;;;;;;47.03;24.98;;;;;;;7.46;100.00;97547.03;1673609;84;21554;-74
2021/11/29 00:29:02;;;;;;;52.13;26.12;;;;;;;7.48;100.00;97546.92;1644454;86;21034;-72
2021/11/29 00:31:29;;;;;;;46.08;24.77;;;;;;;7.51;100.00;97548.17;1675501;85;21529;-72
2021/11/29 00:33:57;;;;;;;45.50;23.90;;;;;;;7.54;100.00;97544.72;1675095;84;21581;-72
2021/11/29 00:36:24;;;;;;;45.83;25.62;;;;;;;7.55;100.00;97546.31;1676279;84;21048;-73
2021/11/29 00:38:50;;;;;;;48.95;25.17;;;;;;;7.56;100.00;97550.62;1676926;84;21458;-73
2021/11/29 00:41:17;;;;;;;49.93;26.40;;;;;;;7.58;100.00;97548.35;1675062;84;20885;-73
2021/11/29 00:43:44;;;;;;;43.95;24.23;;;;;;;7.58;100.00;97535.50;1674850;85;20928;-73
2021/11/29 00:46:10;;;;;;;47.80;24.23;;;;;;;7.59;100.00;97530.26;1674691;85;21546;-73
2021/11/29 00:48:39;;;;;;;49.75;26.40;;;;;;;7.61;100.00;97525.82;1666696;85;20993;-73
2021/11/29 00:51:05;;;;;;;51.60;24.85;;;;;;;7.62;100.00;97515.92;1676311;85;21131;-73
2021/11/29 00:53:32;;;;;;;49.98;25.95;;;;;;;7.62;100.00;97515.92;1679306;85;20956;-73
2021/11/29 00:55:58;;;;;;;51.05;26.42;;;;;;;7.65;100.00;97514.43;1677223;84;21043;-74
2021/11/29 00:58:25;;;;;;;47.80;25.35;;;;;;;7.68;100.00;97524.66;1670097;84;21020;-74
2021/11/29 01:00:52;;;;;;;51.90;27.30;;;;;;;7.72;100.00;97515.21;1668639;85;21127;-72
2021/11/29 01:03:18;;;;;;;50.95;27.32;;;;;;;7.73;100.00;97516.23;1666243;85;21179;-72
2021/11/29 01:05:45;;;;;;;47.20;26.12;;;;;;;7.78;100.00;97519.29;1660791;85;21040;-73
2021/11/29 01:08:14;;;;;;;54.42;27.32;;;;;;;7.79;100.00;97511.32;1646640;85;21519;-73
2021/11/29 01:10:40;;;;;;;58.42;27.65;;;;;;;7.79;100.00;97499.83;1656804;85;21024;-75
2021/11/29 01:13:07;;;;;;;47.55;25.62;;;;;;;7.79;100.00;97499.83;1663402;84;21059;-75
2021/11/29 01:15:35;;;;;;;44.75;23.73;;;;;;;7.80;100.00;97498.69;1643465;85;21100;-73
2021/11/29 01:18:07;;;;;;;48.08;26.10;;;;;;;7.80;100.00;97500.05;1662698;85;21107;-72
2021/11/29 01:20:33;;;;;;;46.13;22.90;;;;;;;7.81;100.00;97488.55;1643211;85;21051;-75
2021/11/29 01:22:59;;;;;;;42.98;24.20;;;;;;;7.81;100.00;97481.16;1620615;87;21526;-74
2021/11/29 01:25:26;;;;;;;51.08;26.73;;;;;;;7.83;100.00;97469.87;1614776;87;21020;-75
2021/11/29 01:27:53;;;;;;;44.13;25.32;;;;;;;7.85;100.00;97463.50;1661199;85;21539;-75
2021/11/29 01:30:20;;;;;;;39.13;24.40;;;;;;;7.88;100.00;97457.34;1656912;85;21062;-75
2021/11/29 01:32:46;;;;;;;45.63;24.32;;;;;;;7.89;100.00;97458.92;1649360;85;20885;-75
2021/11/29 01:35:13;;;;;;;41.53;23.52;;;;;;;7.90;100.00;97453.69;1647895;85;21000;-74
2021/11/29 01:37:40;;;;;;;43.78;24.02;;;;;;;7.92;100.00;97454.13;1657083;85;21551;-73
2021/11/29 01:40:08;;;;;;;42.83;23.77;;;;;;;7.92;100.00;97444.00;1646201;85;21137;-74
2021/11/29 01:42:34;;;;;;;44.40;23.42;;;;;;;7.93;100.00;97450.26;1670804;84;21021;-74
2021/11/29 01:45:02;;;;;;;43.42;23.07;;;;;;;7.93;100.00;97436.03;1671713;85;20993;-74
2021/11/29 01:47:28;;;;;;;39.45;22.25;;;;;;;7.93;100.00;97433.30;1678881;84;21147;-74
2021/11/29 01:49:55;;;;;;;35.80;23.38;;;;;;;7.94;100.00;97425.31;1675989;85;21039;-74
2021/11/29 01:52:22;;;;;;;40.25;23.47;;;;;;;7.97;100.00;97431.23;1675074;84;22076;-75
2021/11/29 01:54:48;;;;;;;36.30;22.15;;;;;;;7.98;100.00;97430.08;1676922;84;21163;-74
2021/11/29 01:57:15;;;;;;;35.85;21.12;;;;;;;7.99;100.00;97431.10;1675155;84;21028;-71
2021/11/29 01:59:43;;;;;;;36.88;22.98;;;;;;;7.99;100.00;97420.75;1673226;85;20936;-71
2021/11/29 02:02:11;;;;;;;33.70;21.23;;;;;;;7.98;100.00;97410.39;1673710;85;21037;-71
2021/11/29 02:04:38;;;;;;;34.33;21.93;;;;;;;8.00;100.00;97411.41;1675328;84;21142;-72
2021/11/29 02:07:05;;;;;;;33.23;21.62;;;;;;;7.99;100.00;97416.64;1674067;85;20977;-72
2021/11/29 02:09:32;;;;;;;35.38;22.70;;;;;;;8.00;100.00;97406.73;1669243;85;21552;-72
2021/11/29 02:11:59;;;;;;;31.68;20.57;;;;;;;8.00;100.00;97402.64;1672103;85;21068;-72
2021/11/29 02:14:25;;;;;;;28.62;19.75;;;;;;;8.03;100.00;97403.88;1674358;84;21039;-72
2021/11/29 02:16:53;;;;;;;30.40;20.15;;;;;;;8.04;100.00;97406.83;1675137;85;21116;-74
2021/11/29 02:19:19;;;;;;;33.92;20.88;;;;;;;8.03;100.00;97409.34;1675903;85;21022;-74
2021/11/29 02:21:46;;;;;;;33.95;20.95;;;;;;;8.02;100.00;97405.81;1680516;84;20929;-73
2021/11/29 02:24:13;;;;;;;39.05;21.02;;;;;;;8.01;100.00;97394.66;1676911;84;20975;-74
2021/11/29 02:26:39;;;;;;;39.67;22.07;;;;;;;8.02;100.00;97388.05;1676139;84;21044;-74
2021/11/29 02:29:13;;;;;;;34.20;20.12;;;;;;;8.03;100.00;97386.11;1671718;85;21928;-74
2021/11/29 02:31:43;;;;;;;38.80;22.65;;;;;;;8.03;100.00;97386.11;1677748;84;21007;-74
2021/11/29 02:34:15;;;;;;;38.88;20.72;;;;;;;8.05;100.00;97380.52;1676047;85;20985;-73
2021/11/29 02:36:42;;;;;;;32.05;20.32;;;;;;;8.07;100.00;97376.06;1679507;84;20949;-74
2021/11/29 02:39:10;;;;;;;34.73;20.08;;;;;;;8.07;100.00;97373.34;1675078;84;21020;-74
2021/11/29 02:41:36;;;;;;;29.70;20.08;;;;;;;8.06;100.00;97359.45;1673358;85;21127;-74
2021/11/29 02:44:04;;;;;;;32.20;20.62;;;;;;;8.07;100.00;97363.20;1682697;84;20933;-74
2021/11/29 02:46:30;;;;;;;34.70;21.62;;;;;;;8.07;100.00;97352.84;1676137;85;20980;-74
2021/11/29 02:48:57;;;;;;;31.82;22.58;;;;;;;8.07;100.00;97347.38;1674141;85;20961;-74
2021/11/29 02:51:33;;;;;;;33.33;22.13;;;;;;;8.08;100.00;97347.02;1688549;84;21582;-74
2021/11/29 02:54:12;;;;;;;36.90;22.62;;;;;;;8.09;100.00;97337.65;1670793;84;21123;-74
2021/11/29 02:56:40;;;;;;;38.53;22.80;;;;;;;8.09;100.00;97323.98;1676135;84;21435;-74
2021/11/29 02:59:11;;;;;;;31.73;20.92;;;;;;;8.10;100.00;97320.11;1678583;84;20893;-74
2021/11/29 03:01:38;;;;;;;35.00;21.93;;;;;;;8.12;100.00;97323.86;1673128;85;21500;-74
2021/11/29 03:04:05;;;;;;;35.83;22.27;;;;;;;8.13;100.00;97321.34;1683001;84;21574;-73
2021/11/29 03:06:31;;;;;;;33.92;21.33;;;;;;;8.15;100.00;97314.95;1678595;84;21537;-73
2021/11/29 03:08:59;;;;;;;39.27;23.27;;;;;;;8.17;100.00;97312.66;1669971;85;21610;-72
2021/11/29 03:11:27;;;;;;;34.48;22.60;;;;;;;8.18;100.00;97310.94;1668086;84;20909;-73
2021/11/29 03:13:54;;;;;;;32.03;23.00;;;;;;;8.20;100.00;97306.48;1676728;85;20953;-75
2021/11/29 03:16:21;;;;;;;31.87;20.62;;;;;;;8.21;100.00;97304.77;1679091;84;20969;-72
2021/11/29 03:18:49;;;;;;;38.23;20.68;;;;;;;8.20;100.00;97294.98;1680442;84;21526;-72
2021/11/29 03:21:18;;;;;;;32.73;21.82;;;;;;;8.21;100.00;97300.66;1681548;84;21031;-72
2021/11/29 03:23:47;;;;;;;32.55;21.87;;;;;;;8.21;100.00;97299.88;1674347;85;20881;-72
2021/11/29 03:26:18;;;;;;;30.77;21.50;;;;;;;8.21;100.00;97306.70;1676173;84;21528;-72
2021/11/29 03:28:47;;;;;;;33.05;20.85;;;;;;;8.20;100.00;97300.45;1667954;85;20986;-75
2021/11/29 03:31:14;;;;;;;37.28;22.02;;;;;;;8.22;100.00;97302.83;1670684;84;21107;-73
2021/11/29 03:33:42;;;;;;;37.28;23.60;;;;;;;8.23;100.00;97306.57;1677591;84;21076;-75
2021/11/29 03:36:08;;;;;;;37.63;22.58;;;;;;;8.24;100.00;97292.33;1673132;84;20881;-75
2021/11/29 03:38:35;;;;;;;29.40;21.52;;;;;;;8.26;100.00;97281.27;1674769;85;21055;-74
2021/11/29 03:41:03;;;;;;;35.80;21.37;;;;;;;8.27;100.00;97286.16;1672285;85;21012;-75
2021/11/29 03:43:30;;;;;;;33.60;20.75;;;;;;;8.28;100.00;97275.44;1647522;85;40180;-75
2021/11/29 03:45:57;;;;;;;35.17;21.48;;;;;;;8.29;100.00;97279.76;1673653;85;21459;-74
2021/11/29 03:48:23;;;;;;;36.15;21.97;;;;;;;8.29;100.00;97275.08;1677619;84;21028;-72
2021/11/29 03:50:50;;;;;;;35.68;23.18;;;;;;;8.30;100.00;97264.95;1673461;85;20968;-74
2021/11/29 03:53:16;;;;;;;32.03;21.52;;;;;;;8.29;100.00;97255.95;1680332;84;20916;-75
2021/11/29 03:55:43;;;;;;;39.80;23.52;;;;;;;8.30;100.00;97247.17;1683692;84;22110;-74
2021/11/29 03:58:10;;;;;;;29.57;20.82;;;;;;;8.28;100.00;97248.90;1685383;84;21566;-75
2021/11/29 04:00:36;;;;;;;32.90;21.25;;;;;;;8.27;100.00;97239.69;1678426;84;21127;-76
2021/11/29 04:03:03;;;;;;;33.90;22.82;;;;;;;8.25;100.00;97244.72;1648657;85;21043;-73
2021/11/29 04:05:30;;;;;;;36.30;22.93;;;;;;;8.23;100.00;97248.38;1679233;84;20999;-73
2021/11/29 04:07:57;;;;;;;35.48;22.70;;;;;;;8.22;100.00;97243.48;1688195;83;21058;-73
2021/11/29 04:10:23;;;;;;;35.33;22.27;;;;;;;8.21;100.00;97240.53;1675461;85;20956;-73
2021/11/29 04:12:51;;;;;;;37.25;23.70;;;;;;;8.19;100.00;97244.20;1681499;84;21099;-73
2021/11/29 04:15:17;;;;;;;36.93;22.50;;;;;;;8.20;100.00;97232.69;1676610;84;21031;-73
2021/11/29 04:17:44;;;;;;;34.30;22.42;;;;;;;8.19;100.00;97227.01;1677415;84;21673;-73
2021/11/29 04:20:13;;;;;;;32.75;21.55;;;;;;;8.16;100.00;97227.14;1674450;84;21500;-73
2021/11/29 04:22:40;;;;;;;34.50;22.80;;;;;;;8.15;100.00;97223.40;1680197;84;20920;-73
2021/11/29 04:25:08;;;;;;;35.58;22.07;;;;;;;8.12;100.00;97219.44;1679898;84;20964;-75
2021/11/29 04:27:36;;;;;;;35.28;22.25;;;;;;;8.11;100.00;97211.02;1681091;84;21094;-76
2021/11/29 04:30:09;;;;;;;37.67;22.80;;;;;;;8.10;100.00;97214.11;1676641;84;21007;-77
2021/11/29 04:32:34;;;;;;;37.85;22.32;;;;;;;8.06;100.00;97209.96;1682532;84;20967;-75
2021/11/29 04:35:00;;;;;;;33.48;22.07;;;;;;;8.06;100.00;97215.42;1686158;84;21126;-75
2021/11/29 04:37:26;;;;;;;36.55;22.40;;;;;;;8.06;100.00;97211.90;1686128;84;21505;-76
2021/11/29 04:39:53;;;;;;;34.10;23.38;;;;;;;8.07;100.00;97208.81;1674978;85;20988;-75
2021/11/29 04:42:20;;;;;;;33.92;22.22;;;;;;;8.08;100.00;97207.66;1687088;84;21046;-76
2021/11/29 04:44:48;;;;;;;34.00;22.25;;;;;;;8.08;100.00;97213.13;1682194;84;21136;-75
2021/11/29 04:47:14;;;;;;;37.50;23.12;;;;;;;8.09;100.00;97213.89;1674667;84;21000;-76
2021/11/29 04:49:41;;;;;;;36.38;23.20;;;;;;;8.10;100.00;97211.37;1674235;85;21522;-75
2021/11/29 04:52:08;;;;;;;38.25;22.90;;;;;;;8.08;100.00;97215.06;1675600;84;21067;-75
2021/11/29 04:54:35;;;;;;;39.00;24.50;;;;;;;8.07;100.00;97204.71;1677297;84;20919;-74
2021/11/29 04:57:01;;;;;;;44.18;24.45;;;;;;;8.06;100.00;97210.53;1675719;84;21100;-74
2021/11/29 04:59:28;;;;;;;35.58;22.95;;;;;;;8.03;100.00;97194.85;1680131;84;20913;-74
2021/11/29 05:02:00;;;;;;;36.10;23.07;;;;;;;8.01;100.00;97194.41;1676630;84;21009;-74
2021/11/29 05:04:22;;;;;;;37.98;23.40;;;;;;;7.96;100.00;97183.19;1679665;84;21681;-74
2021/11/29 05:06:49;;;;;;;39.75;25.40;;;;;;;7.92;100.00;97183.10;1679333;84;21006;-74
2021/11/29 05:09:15;;;;;;;39.53;24.45;;;;;;;7.92;100.00;97176.27;1674544;84;21114;-74
2021/11/29 05:11:42;;;;;;;38.95;24.95;;;;;;;7.90;100.00;97179.14;1677183;85;20959;-75
2021/11/29 05:14:09;;;;;;;50.15;26.60;;;;;;;7.88;100.00;97181.44;1671550;84;21482;-75
2021/11/29 05:16:38;;;;;;;129.65;64.87;;;;;;;7.85;100.00;97176.68;1675030;84;20949;-75
2021/11/29 05:19:04;;;;;;;116.12;69.65;;;;;;;7.82;100.00;97188.31;1650602;85;21031;-77
2021/11/29 05:21:33;;;;;;;100.53;65.72;;;;;;;7.80;100.00;97182.41;1674313;84;21153;-73
2021/11/29 05:24:00;;;;;;;89.00;61.08;;;;;;;7.79;100.00;97193.12;1687194;84;21198;-75
2021/11/29 05:26:29;;;;;;;108.42;66.07;;;;;;;7.79;100.00;97184.92;1681448;84;21466;-71
2021/11/29 05:28:57;;;;;;;64.75;42.45;;;;;;;7.78;100.00;97194.27;1680907;84;21028;-76
2021/11/29 05:31:24;;;;;;;47.23;32.08;;;;;;;7.75;100.00;97195.77;1670531;84;21556;-77
2021/11/29 05:33:52;;;;;;;66.65;45.03;;;;;;;7.75;100.00;97190.30;1677343;84;21535;-73
2021/11/29 05:36:19;;;;;;;56.65;35.60;;;;;;;7.76;100.00;97190.52;1676990;84;20944;-78
2021/11/29 05:38:45;;;;;;;70.42;46.73;;;;;;;7.75;100.00;97190.30;1674477;84;21028;-76
2021/11/29 05:41:12;;;;;;;67.40;42.05;;;;;;;7.75;100.00;97195.77;1677763;84;21141;-76
2021/11/29 05:43:39;;;;;;;60.12;34.67;;;;;;;7.75;100.00;97191.67;1673250;85;20960;-75
2021/11/29 05:46:07;;;;;;;53.87;31.85;;;;;;;7.75;100.00;97182.69;1672407;85;20904;-76
2021/11/29 05:48:34;;;;;;;59.73;33.90;;;;;;;7.73;100.00;97187.13;1678944;84;20940;-80
2021/11/29 05:51:01;;;;;;;43.40;27.67;;;;;;;7.74;100.00;97187.92;1681227;84;21575;-73
2021/11/29 05:53:28;;;;;;;47.20;26.95;;;;;;;7.74;100.00;97183.25;1675097;85;21040;-74
2021/11/29 05:55:55;;;;;;;44.18;25.15;;;;;;;7.74;100.00;97181.89;1675307;84;21063;-76
2021/11/29 05:58:22;;;;;;;44.27;26.27;;;;;;;7.73;100.00;97177.58;1681328;84;21518;-76
2021/11/29 06:00:48;;;;;;;39.58;23.85;;;;;;;7.72;100.00;97180.09;1674734;84;20940;-75
2021/11/29 06:03:16;;;;;;;47.35;25.27;;;;;;;7.74;100.00;97185.20;1676365;84;21010;-76
2021/11/29 06:05:43;;;;;;;38.15;24.67;;;;;;;7.77;100.00;97189.95;1651224;85;21688;-78
2021/11/29 06:08:09;;;;;;;38.38;23.10;;;;;;;7.80;100.00;97177.74;1666348;85;21023;-81
2021/11/29 06:10:36;;;;;;;38.60;22.93;;;;;;;7.79;100.00;97173.42;1667020;85;21559;-81
2021/11/29 06:13:03;;;;;;;40.83;23.42;;;;;;;7.80;100.00;97174.22;1618717;83;21078;-79
2021/11/29 06:15:30;;;;;;;43.63;23.47;;;;;;;7.80;100.00;97170.91;1657503;85;21724;-78
2021/11/29 06:17:57;;;;;;;34.95;21.07;;;;;;;7.81;100.00;97172.50;1679150;84;20936;-78
2021/11/29 06:20:23;;;;;;;39.65;24.15;;;;;;;7.82;100.00;97167.83;1658757;85;21027;-78
2021/11/29 06:22:52;;;;;;;35.52;21.68;;;;;;;7.83;100.00;97162.59;1624064;87;21170;-78
2021/11/29 06:25:20;;;;;;;44.60;23.27;;;;;;;7.83;100.00;97159.28;1649142;86;20979;-80
2021/11/29 06:27:48;;;;;;;36.42;22.73;;;;;;;7.83;100.00;97141.53;1628176;88;20919;-77
2021/11/29 06:30:14;;;;;;;37.05;22.85;;;;;;;7.83;100.00;97151.09;1632227;87;20963;-83
2021/11/29 06:32:42;;;;;;;37.73;21.77;;;;;;;7.84;100.00;97145.84;1625666;87;20955;-79
2021/11/29 06:35:10;;;;;;;37.35;24.02;;;;;;;7.85;100.00;97141.96;1624809;87;22150;-81
2021/11/29 06:37:37;;;;;;;41.00;24.02;;;;;;;7.87;100.00;97130.11;1628797;88;21466;-81
2021/11/29 06:40:07;;;;;;;41.85;21.95;;;;;;;7.89;100.00;97121.56;1626521;87;21491;-83
2021/11/29 06:42:34;;;;;;;41.65;23.62;;;;;;;7.89;100.00;97104.59;1628724;88;20947;-81
2021/11/29 06:45:01;;;;;;;35.88;22.22;;;;;;;7.91;100.00;97106.39;1628830;88;21031;-84
2021/11/29 06:47:29;;;;;;;40.35;24.37;;;;;;;7.92;100.00;97094.31;1618434;87;20985;-76
2021/11/29 06:49:58;;;;;;;40.10;23.80;;;;;;;7.94;100.00;97080.30;1634155;86;20908;-79
2021/11/29 06:52:27;;;;;;;39.03;23.38;;;;;;;7.98;100.00;97080.38;1631510;87;21399;-78
2021/11/29 06:55:00;;;;;;;;;;;;;;;8.00;100.00;97083.55;1630168;86;20932;-78
2021/11/29 06:57:27;;;;;;;49.38;30.15;;;;;;;8.01;100.00;97087.28;1620607;87;20454;-79
2021/11/29 06:59:57;;;;;;;43.60;27.80;;;;;;;8.03;100.00;97078.16;1637861;87;21484;-80
2021/11/29 07:02:36;;;;;;;;;;;;;;;8.07;100.00;97083.69;1631188;87;20880;-81
2021/11/29 07:04:59;;;;;;;;;;;;;;;8.10;100.00;97088.41;1621340;87;20107;-77
2021/11/29 07:07:31;;;;;;;55.65;34.45;;;;;;;8.12;100.00;97084.75;1608078;87;20176;-82
2021/11/29 07:10:01;;;;;;;58.83;33.58;;;;;;;8.13;100.00;97069.36;1587431;88;21279;-79
2021/11/29 07:12:29;;;;;;;41.58;27.32;;;;;;;8.18;100.00;97073.75;1626485;87;21148;-76
2021/11/29 07:15:00;;;;;;;41.45;26.30;;;;;;;8.22;100.00;97066.41;1615121;88;21050;-76
2021/11/29 07:17:32;;;;;;;47.55;26.40;;;;;;;8.26;100.00;97059.07;1626502;87;21030;-78
2021/11/29 07:20:00;;;;;;;41.10;26.97;;;;;;;8.29;100.00;97048.21;1626438;87;21031;-78
2021/11/29 07:22:36;;;;;;;57.60;37.20;;;;;;;8.34;100.00;97051.84;1614715;88;21094;-79
2021/11/29 07:25:07;;;;;;;56.75;36.00;;;;;;;8.37;100.00;97051.11;1626573;88;21179;-78
2021/11/29 07:27:41;;;;;;;45.75;31.25;;;;;;;8.39;100.00;97046.86;1615532;88;21475;-78
2021/11/29 07:30:14;;;;;;;96.67;55.45;;;;;;;8.41;100.00;97039.67;1626593;87;21014;-79
2021/11/29 07:32:56;;;;;;;272.48;157.62;;;;;;;8.41;100.00;97040.46;1617308;86;21035;-82
2021/11/29 07:35:31;;;;;;;65.15;44.10;;;;;;;8.42;100.00;97038.52;1617569;88;20995;-84
2021/11/29 07:38:01;;;;;;;52.00;31.42;;;;;;;8.42;100.00;97040.67;1619110;88;22142;-81
2021/11/29 07:40:35;;;;;;;60.20;38.80;;;;;;;8.41;100.00;97032.26;1626714;88;21526;-79
2021/11/29 07:43:11;;;;;;;65.35;37.28;;;;;;;8.43;100.00;97036.79;1654382;85;21018;-79
2021/11/29 07:45:39;;;;;;;60.17;38.42;;;;;;;8.43;100.00;97036.79;1626920;88;20924;-82
2021/11/29 07:48:10;;;;;;;62.90;42.05;;;;;;;8.48;100.00;97029.66;1617758;87;21035;-85
2021/11/29 07:50:40;;;;;;;62.55;38.55;;;;;;;8.52;100.00;97034.62;1596151;89;20921;-76
2021/11/29 07:53:12;;;;;;;72.65;45.98;;;;;;;8.54;100.00;97036.98;1596047;90;20936;-83
2021/11/29 07:55:41;;;;;;;64.27;41.28;;;;;;;8.53;100.00;97035.41;1596241;90;21092;-82
2021/11/29 07:58:12;;;;;;;63.25;41.50;;;;;;;8.53;100.00;97031.30;1596084;90;20892;-82
2021/11/29 08:00:42;;;;;;;67.50;45.33;;;;;;;8.54;100.00;97009.64;1596663;90;21638;-88
2021/11/29 08:03:12;;;;;;;49.88;30.92;;;;;;;8.55;100.00;97001.66;1576041;90;21329;-78
2021/11/29 08:05:44;;;;;;;64.55;41.35;;;;;;;8.55;100.00;97002.45;1596221;90;21048;-78
2021/11/29 08:08:20;;;;;;;56.58;36.75;;;;;;;8.56;100.00;96997.77;1589063;87;20995;-77
2021/11/29 08:10:52;;;;;;;60.35;33.98;;;;;;;8.57;100.00;96986.47;1626498;88;21593;-75
2021/11/29 08:13:25;;;;;;;62.50;34.50;;;;;;;8.57;100.00;96979.62;1614916;88;20999;-76
2021/11/29 08:15:56;;;;;;;46.73;26.12;;;;;;;8.59;100.00;96974.59;1626820;88;21911;-77
2021/11/29 08:18:28;;;;;;;59.15;34.65;;;;;;;8.59;100.00;96952.70;1611259;87;21042;-80
2021/11/29 08:21:04;;;;;;;59.08;33.45;;;;;;;8.62;100.00;96964.86;1618260;87;21007;-81
2021/11/29 08:23:38;;;;;;;56.28;29.40;;;;;;;8.64;100.00;96967.23;1622553;88;20957;-80
2021/11/29 08:26:05;;;;;;;57.20;28.10;;;;;;;8.66;100.00;96948.52;1621808;88;21051;-75
2021/11/29 08:28:42;;;;;;;62.38;30.08;;;;;;;8.67;100.00;96952.22;1621803;88;20996;-76
2021/11/29 08:31:22;;;;;;;59.50;32.30;;;;;;;8.68;100.00;96936.02;1621643;88;21028;-76
2021/11/29 08:33:48;;;;;;;58.48;31.50;;;;;;;8.71;100.00;96929.03;1619631;88;21019;-73
2021/11/29 08:36:17;;;;;;;68.60;39.95;;;;;;;8.72;100.00;96930.03;1621884;88;21002;-74
2021/11/29 08:38:54;;;;;;;65.12;34.50;;;;;;;8.75;100.00;96917.57;1601886;88;20917;-77
2021/11/29 08:41:27;;;;;;;52.08;27.48;;;;;;;8.76;100.00;96913.09;1602224;88;21543;-77
2021/11/29 08:44:00;;;;;;;53.78;27.48;;;;;;;8.79;100.00;96911.00;1618354;88;21453;-85
2021/11/29 08:46:30;;;;;;;52.03;27.40;;;;;;;8.80;100.00;96894.00;1601449;88;20965;-84
2021/11/29 08:49:05;;;;;;;50.63;27.22;;;;;;;8.83;100.00;96890.53;1621839;88;20893;-82
2021/11/29 08:51:33;;;;;;;71.00;35.78;;;;;;;8.85;100.00;96891.75;1621974;87;24266;-84
2021/11/29 08:54:12;;;;;;;63.08;30.90;;;;;;;8.87;100.00;96881.80;1621544;88;21074;-77
2021/11/29 08:56:40;;;;;;;62.67;34.55;;;;;;;8.91;100.00;96892.22;1621048;88;21016;-75
2021/11/29 08:59:11;;;;;;;55.03;28.80;;;;;;;8.95;100.00;96894.42;1601748;88;21051;-78
2021/11/29 09:01:44;;;;;;;52.17;28.83;;;;;;;8.98;100.00;96890.16;1621675;88;20934;-78
2021/11/29 09:04:13;;;;;;;57.78;31.80;;;;;;;9.00;100.00;96892.74;1621915;88;21546;-84
2021/11/29 09:06:43;;;;;;;59.83;31.53;;;;;;;9.04;100.00;96885.95;1622288;87;21848;-82
2021/11/29 09:09:14;;;;;;;55.15;30.27;;;;;;;9.05;100.00;96886.95;1601625;88;21083;-84
2021/11/29 09:11:43;;;;;;;63.73;33.98;;;;;;;9.09;100.00;96877.42;1621988;88;20980;-84
2021/11/29 09:14:13;;;;;;;54.63;33.38;;;;;;;9.11;100.00;96875.11;1618853;86;26465;-84
2021/11/29 09:16:43;;;;;;;63.10;35.68;;;;;;;9.15;100.00;96864.99;1610576;86;21034;-84
2021/11/29 09:19:12;;;;;;;62.88;32.15;;;;;;;9.18;100.00;96858.78;1626370;86;21150;-79
2021/11/29 09:21:48;;;;;;;56.98;28.00;;;;;;;9.20;100.00;96855.88;1626391;88;21066;-76
2021/11/29 09:24:17;;;;;;;52.70;29.23;;;;;;;9.23;100.00;96844.19;1626279;88;20932;-78
2021/11/29 09:26:49;;;;;;;54.30;29.87;;;;;;;9.28;100.00;96844.41;1626230;88;21022;-77
2021/11/29 09:29:19;;;;;;;57.10;31.30;;;;;;;9.29;100.00;96833.67;1626349;88;21035;-78
2021/11/29 09:31:52;;;;;;;57.73;30.12;;;;;;;9.32;100.00;96831.55;1626683;88;21149;-77
2021/11/29 09:34:20;;;;;;;54.83;31.10;;;;;;;9.34;100.00;96825.70;1625571;88;20940;-78
2021/11/29 09:36:51;;;;;;;57.65;28.10;;;;;;;9.34;100.00;96811.44;1626665;88;21003;-78
2021/11/29 09:39:23;;;;;;;46.95;26.97;;;;;;;9.36;100.00;96805.59;1606075;88;20939;-77
2021/11/29 09:41:54;;;;;;;45.95;25.37;;;;;;;9.36;100.00;96792.69;1626511;88;21025;-78
2021/11/29 09:44:28;;;;;;;46.58;26.25;;;;;;;9.38;100.00;96782.15;1614472;88;21546;-73
2021/11/29 09:46:56;;;;;;;51.33;26.82;;;;;;;9.40;100.00;96775.72;1626820;88;20979;-73
2021/11/29 09:49:30;;;;;;;44.05;25.12;;;;;;;9.42;100.00;96756.18;1626793;88;21033;-72
2021/11/29 09:52:03;;;;;;;49.90;27.37;;;;;;;9.44;100.00;96747.01;1625818;87;21446;-74
2021/11/29 09:54:36;;;;;;;49.10;26.12;;;;;;;9.46;100.00;96734.52;1626585;87;20987;-74
2021/11/29 09:57:12;;;;;;;47.70;25.20;;;;;;;9.48;100.00;96722.61;1601646;87;21783;-74
2021/11/29 09:59:44;;;;;;;40.17;24.82;;;;;;;9.51;100.00;96721.06;1626407;88;20912;-73
2021/11/29 10:02:16;;;;;;;45.28;26.15;;;;;;;9.52;100.00;96720.69;1626541;88;20998;-73
2021/11/29 10:04:50;;;;;;;50.75;26.93;;;;;;;9.53;100.00;96737.33;1626545;88;20996;-74
2021/11/29 10:07:39;;;;;;;43.70;25.43;;;;;;;9.55;100.00;96739.11;1626724;88;21042;-74
2021/11/29 10:10:27;;;;;;;46.42;26.40;;;;;;;9.57;100.00;96734.04;1626622;88;21145;-75
2021/11/29 10:13:01;;;;;;;51.25;28.92;;;;;;;9.58;100.00;96733.45;1614945;88;21411;-74
2021/11/29 10:15:36;;;;;;;50.52;29.85;;;;;;;9.59;100.00;96724.86;1645111;85;21067;-74
2021/11/29 10:18:22;;;;;;;52.35;33.78;;;;;;;9.59;100.00;96723.49;1651860;85;21063;-73
2021/11/29 10:21:10;;;;;;;63.83;40.80;;;;;;;9.59;100.00;96726.23;1629638;85;21039;-73
2021/11/29 10:23:45;;;;;;;69.10;43.00;;;;;;;9.62;100.00;96726.06;1634845;86;21843;-73
2021/11/29 10:26:20;;;;;;;63.45;37.35;;;;;;;9.65;100.00;96721.20;1637325;86;21044;-73
2021/11/29 10:28:56;;;;;;;71.95;33.25;;;;;;;9.67;100.00;96722.19;1651254;85;20977;-73
2021/11/29 10:31:51;;;;;;;42.05;26.50;;;;;;;9.68;100.00;96724.55;1652544;85;21042;-73
2021/11/29 10:34:23;;;;;;;41.53;25.25;;;;;;;9.68;100.00;96721.81;1633531;85;20942;-76
2021/11/29 10:36:58;;;;;;;40.03;24.10;;;;;;;9.70;100.00;96715.37;1657641;85;21109;-74
2021/11/29 10:39:33;;;;;;;43.58;25.32;;;;;;;9.71;100.00;96712.84;1660542;85;21110;-74
2021/11/29 10:42:05;;;;;;;41.63;24.60;;;;;;;9.74;100.00;96708.55;1648834;85;20982;-74
2021/11/29 10:44:40;;;;;;;45.10;24.45;;;;;;;9.74;100.00;96706.61;1647940;85;21085;-73
2021/11/29 10:47:13;;;;;;;42.73;25.97;;;;;;;9.75;100.00;96700.55;1647036;85;20977;-73
2021/11/29 10:49:47;;;;;;;42.20;23.62;;;;;;;9.75;100.00;96691.74;1649348;85;21160;-73
2021/11/29 10:52:19;;;;;;;40.65;22.27;;;;;;;9.76;100.00;96690.58;1652245;85;21108;-74
2021/11/29 10:54:49;;;;;;;37.33;23.57;;;;;;;9.77;100.00;96683.14;1638775;86;21055;-74
2021/11/29 10:57:21;;;;;;;34.95;21.10;;;;;;;9.78;100.00;96677.28;1633345;84;21179;-74
2021/11/29 10:59:55;;;;;;;33.33;20.02;;;;;;;9.78;100.00;96684.14;1595626;87;21042;-74
2021/11/29 11:02:28;;;;;;;33.10;19.77;;;;;;;9.80;100.00;96670.06;1633244;86;21011;-74
2021/11/29 11:05:06;;;;;;;32.08;19.98;;;;;;;9.79;100.00;96665.16;1651065;86;20960;-74
2021/11/29 11:07:35;;;;;;;34.88;18.50;;;;;;;9.80;100.00;96658.52;1651787;85;21328;-74
2021/11/29 11:10:08;;;;;;;36.20;21.48;;;;;;;9.79;100.00;96651.47;1643577;86;21545;-75
2021/11/29 11:12:40;;;;;;;41.98;20.20;;;;;;;9.80;100.00;96646.77;1639450;85;20869;-74
2021/11/29 11:15:16;;;;;;;38.70;20.35;;;;;;;9.78;100.00;96635.41;1634646;86;21162;-74
2021/11/29 11:17:51;;;;;;;40.92;20.57;;;;;;;9.78;100.00;96634.03;1634242;86;20920;-71
2021/11/29 11:20:27;;;;;;;31.73;20.30;;;;;;;9.77;100.00;96625.03;1644749;85;21090;-86
2021/11/29 11:22:59;;;;;;;37.28;24.65;;;;;;;9.76;100.00;96612.50;1664388;85;20959;-79
2021/11/29 11:25:35;;;;;;;36.58;21.07;;;;;;;9.74;100.00;96598.40;1631638;86;20923;-70
2021/11/29 11:28:12;;;;;;;34.75;22.60;;;;;;;9.73;100.00;96584.50;1649182;85;21618;-72